Time;durP1;ratioP1;P1;durP2;ratioP2;P2;SDS_P1;SDS_P2;PMS_P1;PMS_P2;Temp;Humidity;BMP_temperature;BMP_pressure;BME280_temperature;BME280_humidity;BME280_pressure;Samples;Min_cycle;Max_cycle;Signal;HPM_P1;HPM_P2
2021/12/30 00:01:02;;;;;;;20.40;7.22;;;;;;;;;;5053181;28;20218;-73
2021/12/30 00:03:29;;;;;;;17.10;7.68;;;;;;;;;;5050468;28;20547;-73
2021/12/30 00:05:57;;;;;;;20.48;6.45;;;;;;;;;;5051009;28;20225;-74
2021/12/30 00:08:25;;;;;;;14.57;5.57;;;;;;;;;;5051886;28;20195;-73
2021/12/30 00:10:53;;;;;;;15.60;6.85;;;;;;;;;;5044932;28;20658;-73
2021/12/30 00:13:21;;;;;;;18.00;7.43;;;;;;;;;;5047992;28;20199;-72
2021/12/30 00:15:48;;;;;;;11.00;5.95;;;;;;;;;;5049444;28;20202;-73
2021/12/30 00:18:15;;;;;;;14.65;5.93;;;;;;;;;;5051103;28;20282;-72
2021/12/30 00:20:43;;;;;;;17.10;6.68;;;;;;;;;;5050186;28;20202;-72
2021/12/30 00:23:10;;;;;;;10.93;6.90;;;;;;;;;;5045212;28;20218;-74
2021/12/30 00:25:40;;;;;;;9.32;6.13;;;;;;;;;;5047968;28;20276;-73
2021/12/30 00:28:09;;;;;;;15.70;5.90;;;;;;;;;;5051555;28;20198;-74
2021/12/30 00:30:37;;;;;;;17.73;7.07;;;;;;;;;;5056346;28;20575;-73
2021/12/30 00:33:04;;;;;;;20.92;8.80;;;;;;;;;;5050085;28;20199;-74
2021/12/30 00:35:32;;;;;;;11.77;6.20;;;;;;;;;;5051175;28;20203;-73
2021/12/30 00:37:59;;;;;;;24.10;6.82;;;;;;;;;;5053675;28;20253;-73
2021/12/30 00:40:26;;;;;;;9.68;7.93;;;;;;;;;;5047222;28;20658;-74
2021/12/30 00:42:53;;;;;;;14.10;5.32;;;;;;;;;;5053325;28;20206;-73
2021/12/30 00:45:21;;;;;;;17.02;7.00;;;;;;;;;;5055510;28;20221;-75
2021/12/30 00:47:48;;;;;;;14.45;8.10;;;;;;;;;;5055378;28;20216;-73
2021/12/30 00:50:15;;;;;;;12.10;6.65;;;;;;;;;;5047005;28;20202;-73
2021/12/30 00:52:42;;;;;;;12.38;6.30;;;;;;;;;;5051610;28;20613;-73
2021/12/30 00:55:10;;;;;;;20.80;8.00;;;;;;;;;;5048019;28;20195;-73
2021/12/30 00:57:37;;;;;;;12.77;7.22;;;;;;;;;;5050847;28;20205;-73
2021/12/30 01:00:05;;;;;;;19.88;8.27;;;;;;;;;;5050178;28;20218;-73
2021/12/30 01:02:33;;;;;;;17.38;7.03;;;;;;;;;;5050173;28;20720;-74
2021/12/30 01:05:00;;;;;;;15.00;7.53;;;;;;;;;;5049395;28;20685;-73
2021/12/30 01:07:27;;;;;;;17.90;7.57;;;;;;;;;;5047142;28;20202;-73
2021/12/30 01:09:54;;;;;;;16.75;9.15;;;;;;;;;;5046009;28;20647;-73
2021/12/30 01:12:23;;;;;;;15.73;7.85;;;;;;;;;;5050681;28;20677;-72
2021/12/30 01:14:50;;;;;;;20.55;9.82;;;;;;;;;;5051341;28;20289;-72
2021/12/30 01:17:22;;;;;;;17.05;9.32;;;;;;;;;;5046948;28;20199;-73
2021/12/30 01:19:51;;;;;;;16.77;9.75;;;;;;;;;;5049116;28;20316;-72
2021/12/30 01:22:19;;;;;;;16.40;8.23;;;;;;;;;;5046056;28;20268;-73
2021/12/30 01:24:47;;;;;;;16.95;10.20;;;;;;;;;;5047634;28;20195;-74
2021/12/30 01:27:14;;;;;;;27.65;10.63;;;;;;;;;;5050080;28;20194;-72
2021/12/30 01:29:41;;;;;;;18.98;10.02;;;;;;;;;;5045598;28;20260;-72
2021/12/30 01:32:09;;;;;;;16.33;11.00;;;;;;;;;;5048298;28;20203;-74
2021/12/30 01:34:36;;;;;;;16.50;10.60;;;;;;;;;;5049987;28;20291;-72
2021/12/30 01:37:05;;;;;;;20.30;12.68;;;;;;;;;;5050554;28;20195;-72
2021/12/30 01:39:33;;;;;;;12.95;8.45;;;;;;;;;;5047827;28;20199;-73
2021/12/30 01:42:01;;;;;;;13.32;9.10;;;;;;;;;;5044196;28;20318;-72
2021/12/30 01:44:29;;;;;;;14.25;9.02;;;;;;;;;;5050349;28;20616;-72
2021/12/30 01:46:56;;;;;;;17.15;9.70;;;;;;;;;;5049168;28;20207;-72
2021/12/30 01:49:24;;;;;;;14.98;9.70;;;;;;;;;;5048879;28;20210;-72
2021/12/30 01:51:52;;;;;;;20.25;9.55;;;;;;;;;;5049587;28;20544;-73
2021/12/30 01:54:21;;;;;;;13.13;9.70;;;;;;;;;;5050027;28;20662;-74
2021/12/30 01:56:50;;;;;;;15.02;9.27;;;;;;;;;;5048023;28;20201;-72
2021/12/30 01:59:17;;;;;;;15.02;8.93;;;;;;;;;;5040629;28;20215;-73
2021/12/30 02:01:45;;;;;;;15.15;8.55;;;;;;;;;;5049103;28;20578;-72
2021/12/30 02:04:12;;;;;;;15.85;9.10;;;;;;;;;;5046930;28;20287;-73
2021/12/30 02:06:40;;;;;;;24.63;9.85;;;;;;;;;;5046220;28;20221;-73
2021/12/30 02:09:07;;;;;;;17.90;9.57;;;;;;;;;;5052362;28;20201;-72
2021/12/30 02:11:35;;;;;;;16.38;9.43;;;;;;;;;;5047635;28;20285;-73
2021/12/30 02:14:02;;;;;;;16.60;9.10;;;;;;;;;;5051368;28;20285;-73
2021/12/30 02:16:29;;;;;;;16.95;9.52;;;;;;;;;;5052320;28;20642;-74
2021/12/30 02:18:56;;;;;;;16.65;9.70;;;;;;;;;;5054070;28;20650;-72
2021/12/30 02:21:25;;;;;;;18.00;9.35;;;;;;;;;;5050098;28;20198;-72
2021/12/30 02:23:52;;;;;;;13.70;8.10;;;;;;;;;;5046395;28;20229;-73
2021/12/30 02:26:21;;;;;;;16.05;8.30;;;;;;;;;;5041821;28;20203;-73
2021/12/30 02:28:48;;;;;;;22.48;10.57;;;;;;;;;;5043165;28;20202;-73
2021/12/30 02:31:16;;;;;;;10.80;8.10;;;;;;;;;;5046620;28;20206;-72
2021/12/30 02:33:43;;;;;;;15.98;9.15;;;;;;;;;;5051164;28;20198;-73
2021/12/30 02:36:11;;;;;;;16.35;9.20;;;;;;;;;;5047825;28;20202;-72
2021/12/30 02:38:43;;;;;;;15.52;9.95;;;;;;;;;;5044807;28;20651;-74
2021/12/30 02:41:14;;;;;;;13.90;9.75;;;;;;;;;;5052183;28;20194;-75
2021/12/30 02:43:41;;;;;;;19.90;9.43;;;;;;;;;;5050170;28;20234;-73
2021/12/30 02:46:08;;;;;;;20.20;10.95;;;;;;;;;;5058607;28;20213;-73
2021/12/30 02:48:36;;;;;;;24.63;9.95;;;;;;;;;;5057807;28;20194;-74
2021/12/30 02:51:05;;;;;;;13.82;8.77;;;;;;;;;;5052013;28;20668;-73
2021/12/30 02:53:32;;;;;;;17.05;10.65;;;;;;;;;;5055980;28;20697;-74
2021/12/30 02:56:01;;;;;;;18.13;9.00;;;;;;;;;;5052392;28;20206;-72
2021/12/30 02:58:28;;;;;;;18.40;9.38;;;;;;;;;;5057250;28;20933;-73
2021/12/30 03:00:58;;;;;;;21.80;9.35;;;;;;;;;;5055257;28;20700;-73
2021/12/30 03:03:26;;;;;;;17.25;9.10;;;;;;;;;;5056350;28;20584;-72
2021/12/30 03:05:58;;;;;;;15.30;9.63;;;;;;;;;;5056943;28;20207;-73
2021/12/30 03:08:25;;;;;;;22.45;10.45;;;;;;;;;;5070495;28;20198;-74
2021/12/30 03:10:52;;;;;;;16.08;8.77;;;;;;;;;;5050114;28;20222;-74
2021/12/30 03:13:29;;;;;;;15.90;8.85;;;;;;;;;;5053810;28;20563;-73
2021/12/30 03:15:56;;;;;;;21.70;9.43;;;;;;;;;;5047193;28;20209;-72
2021/12/30 03:18:23;;;;;;;17.17;9.10;;;;;;;;;;5057895;28;20566;-72
2021/12/30 03:20:50;;;;;;;15.35;10.73;;;;;;;;;;5049958;28;20195;-73
2021/12/30 03:23:17;;;;;;;13.75;9.98;;;;;;;;;;5047671;28;20216;-72
2021/12/30 03:25:45;;;;;;;15.95;10.07;;;;;;;;;;5055003;28;20363;-75
2021/12/30 03:28:12;;;;;;;15.27;8.32;;;;;;;;;;5044506;28;20214;-74
2021/12/30 03:30:40;;;;;;;23.73;10.15;;;;;;;;;;5054278;28;20227;-74
2021/12/30 03:33:07;;;;;;;15.45;8.15;;;;;;;;;;5045729;28;20211;-75
2021/12/30 03:35:34;;;;;;;20.15;9.98;;;;;;;;;;5053988;28;20213;-74
2021/12/30 03:38:02;;;;;;;24.92;9.98;;;;;;;;;;5051995;28;20662;-74
2021/12/30 03:40:29;;;;;;;21.05;9.10;;;;;;;;;;5051057;28;20199;-75
2021/12/30 03:42:56;;;;;;;17.73;8.88;;;;;;;;;;5051635;28;20214;-75
2021/12/30 03:45:23;;;;;;;17.88;9.10;;;;;;;;;;5050826;28;20191;-74
2021/12/30 03:47:53;;;;;;;20.40;9.25;;;;;;;;;;5048475;28;20187;-74
2021/12/30 03:50:23;;;;;;;18.05;8.55;;;;;;;;;;5052372;28;20746;-74
2021/12/30 03:52:52;;;;;;;11.77;8.05;;;;;;;;;;5055704;28;20220;-73
2021/12/30 03:55:19;;;;;;;24.17;8.90;;;;;;;;;;5051454;28;20201;-74
2021/12/30 03:57:46;;;;;;;10.98;8.68;;;;;;;;;;5050451;28;20199;-74
2021/12/30 04:00:14;;;;;;;15.85;8.95;;;;;;;;;;5051487;28;20230;-73
2021/12/30 04:02:41;;;;;;;13.23;7.53;;;;;;;;;;5046453;28;20217;-73
2021/12/30 04:05:10;;;;;;;12.70;9.07;;;;;;;;;;5052117;28;20199;-73
2021/12/30 04:07:37;;;;;;;15.88;9.38;;;;;;;;;;5051556;28;20554;-73
2021/12/30 04:10:05;;;;;;;17.30;8.55;;;;;;;;;;5049887;28;20195;-74
2021/12/30 04:12:32;;;;;;;14.50;8.02;;;;;;;;;;5051387;28;20685;-74
2021/12/30 04:14:59;;;;;;;14.35;6.97;;;;;;;;;;5051737;28;20206;-74
2021/12/30 04:17:26;;;;;;;16.10;7.03;;;;;;;;;;5049906;28;20651;-75
2021/12/30 04:19:53;;;;;;;18.20;7.80;;;;;;;;;;5051941;28;20655;-75
2021/12/30 04:22:22;;;;;;;13.25;8.02;;;;;;;;;;5050273;28;20681;-74
2021/12/30 04:24:49;;;;;;;12.02;7.70;;;;;;;;;;5048448;28;20206;-76
2021/12/30 04:27:16;;;;;;;14.25;8.88;;;;;;;;;;5049364;28;21997;-74
2021/12/30 04:29:43;;;;;;;18.85;7.20;;;;;;;;;;5048210;28;20199;-74
2021/12/30 04:32:10;;;;;;;13.18;8.73;;;;;;;;;;5052840;28;20560;-74
2021/12/30 04:34:37;;;;;;;18.70;8.10;;;;;;;;;;5058292;28;20202;-74
2021/12/30 04:37:04;;;;;;;19.23;7.43;;;;;;;;;;5055339;28;20218;-74
2021/12/30 04:39:33;;;;;;;12.38;6.65;;;;;;;;;;5048912;28;20677;-74
2021/12/30 04:42:01;;;;;;;17.85;7.32;;;;;;;;;;5050700;28;20211;-74
2021/12/30 04:44:28;;;;;;;12.80;6.75;;;;;;;;;;5054508;28;20218;-74
2021/12/30 04:46:55;;;;;;;17.80;7.05;;;;;;;;;;5053391;28;20205;-74
2021/12/30 04:49:22;;;;;;;13.00;7.60;;;;;;;;;;5060487;28;20199;-74
2021/12/30 04:51:49;;;;;;;15.48;7.97;;;;;;;;;;5052410;28;20666;-74
2021/12/30 04:54:16;;;;;;;15.15;7.22;;;;;;;;;;5052066;28;20202;-74
2021/12/30 04:56:45;;;;;;;10.73;7.32;;;;;;;;;;5053567;28;20202;-74
2021/12/30 04:59:12;;;;;;;11.00;6.55;;;;;;;;;;5053489;28;20255;-74
2021/12/30 05:01:39;;;;;;;10.00;6.43;;;;;;;;;;5055177;28;20211;-74
2021/12/30 05:04:07;;;;;;;13.23;6.70;;;;;;;;;;5061882;28;20661;-74
2021/12/30 05:06:36;;;;;;;15.32;7.55;;;;;;;;;;5041448;28;20665;-74
2021/12/30 05:09:03;;;;;;;9.93;7.00;;;;;;;;;;5067371;28;20206;-74
2021/12/30 05:11:30;;;;;;;19.33;6.43;;;;;;;;;;5044552;28;20206;-74
2021/12/30 05:13:59;;;;;;;12.50;6.53;;;;;;;;;;5052314;28;20646;-74
2021/12/30 05:16:26;;;;;;;11.23;6.70;;;;;;;;;;5049607;28;20213;-74
2021/12/30 05:18:56;;;;;;;16.95;7.97;;;;;;;;;;5065579;28;20206;-74
2021/12/30 05:21:23;;;;;;;11.68;8.02;;;;;;;;;;5053144;28;20210;-74
2021/12/30 05:23:50;;;;;;;14.45;7.97;;;;;;;;;;5052929;28;20219;-75
2021/12/30 05:26:18;;;;;;;12.95;6.80;;;;;;;;;;5046170;28;20195;-74
2021/12/30 05:28:45;;;;;;;18.05;9.15;;;;;;;;;;5050634;28;20281;-74
2021/12/30 05:31:13;;;;;;;15.85;7.47;;;;;;;;;;5050909;28;20206;-74
2021/12/30 05:33:40;;;;;;;9.40;6.32;;;;;;;;;;5051011;28;20198;-74
2021/12/30 05:36:07;;;;;;;9.75;6.85;;;;;;;;;;5049484;28;20680;-74
2021/12/30 05:38:34;;;;;;;11.50;7.00;;;;;;;;;;5050257;28;20458;-75
2021/12/30 05:41:01;;;;;;;13.38;6.40;;;;;;;;;;5042045;28;20199;-74
2021/12/30 05:43:28;;;;;;;11.85;6.97;;;;;;;;;;5050236;28;20226;-74
2021/12/30 05:45:55;;;;;;;11.48;7.30;;;;;;;;;;5048081;28;20234;-74
2021/12/30 05:48:24;;;;;;;12.30;6.70;;;;;;;;;;5049876;28;20673;-74
2021/12/30 05:50:51;;;;;;;15.93;8.32;;;;;;;;;;5050128;28;20190;-74
2021/12/30 05:53:18;;;;;;;12.77;6.65;;;;;;;;;;5053891;28;20574;-74
2021/12/30 05:55:45;;;;;;;11.55;6.95;;;;;;;;;;5038200;28;20203;-74
2021/12/30 05:58:12;;;;;;;11.07;7.53;;;;;;;;;;5039879;28;20723;-74
2021/12/30 06:00:40;;;;;;;8.82;5.95;;;;;;;;;;5047274;28;20718;-74
2021/12/30 06:03:07;;;;;;;7.32;5.78;;;;;;;;;;5062173;28;20194;-74
2021/12/30 06:05:36;;;;;;;9.15;6.40;;;;;;;;;;5064942;28;20650;-74
2021/12/30 06:08:03;;;;;;;10.38;7.53;;;;;;;;;;5056823;28;20206;-74
2021/12/30 06:10:30;;;;;;;14.27;5.88;;;;;;;;;;5054862;28;20202;-75
2021/12/30 06:12:57;;;;;;;9.55;6.05;;;;;;;;;;5047771;28;20199;-75
2021/12/30 06:15:24;;;;;;;8.88;5.45;;;;;;;;;;5050343;28;20214;-74
2021/12/30 06:17:51;;;;;;;7.53;5.38;;;;;;;;;;5050705;28;20205;-73
2021/12/30 06:20:18;;;;;;;6.28;5.00;;;;;;;;;;5050510;28;20649;-73
2021/12/30 06:22:48;;;;;;;5.18;4.40;;;;;;;;;;5054062;28;20677;-73
2021/12/30 06:25:16;;;;;;;8.45;4.95;;;;;;;;;;5049463;28;20260;-74
2021/12/30 06:27:43;;;;;;;6.20;4.30;;;;;;;;;;5053504;28;20565;-74
2021/12/30 06:30:11;;;;;;;8.35;4.47;;;;;;;;;;5058678;28;20198;-74
2021/12/30 06:32:38;;;;;;;5.63;4.35;;;;;;;;;;5054511;28;20770;-74
2021/12/30 06:35:07;;;;;;;6.55;4.70;;;;;;;;;;5053770;28;20699;-74
2021/12/30 06:37:34;;;;;;;5.78;4.15;;;;;;;;;;5050707;28;20198;-74
2021/12/30 06:40:03;;;;;;;6.97;4.25;;;;;;;;;;5049645;28;20206;-74
2021/12/30 06:42:30;;;;;;;3.63;3.30;;;;;;;;;;5063588;28;20198;-74
2021/12/30 06:44:57;;;;;;;5.22;3.35;;;;;;;;;;5053060;28;20221;-75
2021/12/30 06:47:24;;;;;;;5.53;4.20;;;;;;;;;;5052281;28;20203;-75
2021/12/30 06:49:52;;;;;;;4.20;3.53;;;;;;;;;;5057550;28;20203;-74
2021/12/30 06:52:19;;;;;;;3.63;2.70;;;;;;;;;;5052039;28;20197;-74
2021/12/30 06:54:46;;;;;;;6.53;3.60;;;;;;;;;;5055750;28;20210;-74
2021/12/30 06:57:14;;;;;;;3.85;3.38;;;;;;;;;;5062053;28;20206;-74
2021/12/30 06:59:41;;;;;;;3.67;3.38;;;;;;;;;;5058088;28;20305;-76
2021/12/30 07:02:08;;;;;;;2.78;2.58;;;;;;;;;;5055317;28;20198;-76
2021/12/30 07:04:36;;;;;;;3.38;2.70;;;;;;;;;;5054401;28;20223;-75
2021/12/30 07:07:03;;;;;;;3.10;2.83;;;;;;;;;;5059201;28;20202;-76
2021/12/30 07:09:30;;;;;;;3.20;2.45;;;;;;;;;;5060642;28;20205;-77
2021/12/30 07:11:57;;;;;;;3.28;2.75;;;;;;;;;;5061518;28;20201;-77
2021/12/30 07:14:26;;;;;;;5.10;2.60;;;;;;;;;;5055881;28;20202;-76
2021/12/30 07:16:53;;;;;;;3.35;2.63;;;;;;;;;;5059385;28;20251;-77
2021/12/30 07:19:20;;;;;;;4.50;2.97;;;;;;;;;;5053076;28;20198;-77
2021/12/30 07:21:49;;;;;;;3.95;2.63;;;;;;;;;;5055096;28;20194;-77
2021/12/30 07:24:16;;;;;;;3.80;2.40;;;;;;;;;;5053433;28;20214;-76
2021/12/30 07:26:43;;;;;;;4.07;3.03;;;;;;;;;;5058663;28;20562;-75
2021/12/30 07:29:10;;;;;;;4.72;2.20;;;;;;;;;;5051730;28;20574;-76
2021/12/30 07:31:38;;;;;;;3.08;2.78;;;;;;;;;;5053179;28;20620;-75
2021/12/30 07:34:05;;;;;;;3.65;2.63;;;;;;;;;;5060475;28;20661;-76
2021/12/30 07:36:33;;;;;;;4.30;2.65;;;;;;;;;;5050953;28;20206;-76
2021/12/30 07:39:00;;;;;;;3.22;2.92;;;;;;;;;;5051419;28;20195;-77
2021/12/30 07:41:27;;;;;;;4.40;3.38;;;;;;;;;;5044960;28;20913;-77
2021/12/30 07:43:54;;;;;;;5.32;4.45;;;;;;;;;;5063665;28;20230;-77
2021/12/30 07:46:21;;;;;;;5.97;4.28;;;;;;;;;;5050631;28;20210;-77
2021/12/30 07:48:49;;;;;;;4.95;4.53;;;;;;;;;;5063676;28;20198;-77
2021/12/30 07:51:16;;;;;;;5.32;4.78;;;;;;;;;;5044337;28;20199;-77
2021/12/30 07:53:43;;;;;;;6.93;5.60;;;;;;;;;;5056832;28;20207;-77
2021/12/30 07:56:10;;;;;;;6.20;5.60;;;;;;;;;;5056667;28;20198;-78
2021/12/30 07:58:37;;;;;;;7.45;6.75;;;;;;;;;;5048268;28;20199;-77
2021/12/30 08:01:04;;;;;;;7.85;6.95;;;;;;;;;;5047030;28;20644;-77
2021/12/30 08:03:31;;;;;;;9.48;6.68;;;;;;;;;;5053640;28;20539;-77
2021/12/30 08:06:00;;;;;;;9.65;8.63;;;;;;;;;;5048595;28;20679;-75
2021/12/30 08:08:27;;;;;;;7.57;6.57;;;;;;;;;;5050056;28;20199;-75
2021/12/30 08:10:54;;;;;;;9.98;8.85;;;;;;;;;;5051234;28;20211;-75
2021/12/30 08:13:23;;;;;;;12.57;9.10;;;;;;;;;;5052708;28;20650;-75
2021/12/30 08:15:50;;;;;;;10.10;8.48;;;;;;;;;;5047031;28;20199;-75
2021/12/30 08:18:17;;;;;;;9.90;9.00;;;;;;;;;;5039005;28;20203;-74
2021/12/30 08:20:45;;;;;;;9.45;8.45;;;;;;;;;;5048616;28;20199;-75
2021/12/30 08:23:13;;;;;;;10.80;9.00;;;;;;;;;;5049706;28;20209;-74
2021/12/30 08:25:40;;;;;;;9.93;7.70;;;;;;;;;;5053988;28;20633;-75
2021/12/30 08:28:08;;;;;;;11.45;10.35;;;;;;;;;;5053008;28;20239;-74
2021/12/30 08:30:35;;;;;;;10.40;9.40;;;;;;;;;;5050626;28;20333;-74
2021/12/30 08:33:02;;;;;;;9.75;8.75;;;;;;;;;;5052226;28;20225;-75
2021/12/30 08:35:29;;;;;;;9.95;8.60;;;;;;;;;;5051621;28;20559;-76
2021/12/30 08:37:56;;;;;;;10.10;9.05;;;;;;;;;;5054464;28;20206;-76
2021/12/30 08:40:25;;;;;;;9.45;8.55;;;;;;;;;;5052300;28;20255;-76
2021/12/30 08:42:52;;;;;;;10.52;8.85;;;;;;;;;;5032892;28;20203;-76
2021/12/30 08:45:19;;;;;;;14.75;9.93;;;;;;;;;;5053481;28;20218;-76
2021/12/30 08:47:46;;;;;;;9.98;9.02;;;;;;;;;;5054486;28;20199;-76
2021/12/30 08:50:14;;;;;;;9.93;8.98;;;;;;;;;;5049663;28;20199;-77
2021/12/30 08:52:42;;;;;;;11.18;10.07;;;;;;;;;;5051352;28;20222;-76
2021/12/30 08:55:10;;;;;;;10.23;9.23;;;;;;;;;;5060674;28;20202;-77
2021/12/30 08:57:40;;;;;;;10.88;9.77;;;;;;;;;;5059303;28;20613;-77
2021/12/30 09:00:09;;;;;;;12.55;9.23;;;;;;;;;;5051278;28;20334;-77
2021/12/30 09:02:36;;;;;;;11.15;9.82;;;;;;;;;;5055521;28;20198;-76
2021/12/30 09:05:03;;;;;;;10.35;9.25;;;;;;;;;;5068735;28;20214;-78
2021/12/30 09:07:30;;;;;;;9.85;8.85;;;;;;;;;;5061573;28;20689;-77
2021/12/30 09:09:57;;;;;;;11.77;9.50;;;;;;;;;;5047313;28;20590;-76
2021/12/30 09:12:24;;;;;;;10.40;8.88;;;;;;;;;;5059393;28;20205;-76
2021/12/30 09:14:53;;;;;;;12.00;10.77;;;;;;;;;;5059227;28;20191;-78
2021/12/30 09:17:20;;;;;;;11.13;10.02;;;;;;;;;;5055359;28;20199;-76
2021/12/30 09:19:47;;;;;;;8.73;7.82;;;;;;;;;;5056460;28;20198;-76
2021/12/30 09:22:14;;;;;;;8.55;7.75;;;;;;;;;;5069580;28;20553;-76
2021/12/30 09:24:42;;;;;;;9.85;8.85;;;;;;;;;;5046750;28;20586;-76
2021/12/30 09:27:09;;;;;;;12.43;8.57;;;;;;;;;;5052046;28;20733;-76
2021/12/30 09:29:36;;;;;;;10.50;8.95;;;;;;;;;;5062393;28;20638;-75
2021/12/30 09:32:05;;;;;;;9.57;7.70;;;;;;;;;;5053392;28;20654;-76
2021/12/30 09:34:32;;;;;;;8.55;7.65;;;;;;;;;;5039422;28;20192;-76
2021/12/30 09:36:59;;;;;;;8.77;7.97;;;;;;;;;;5054178;28;20209;-76
2021/12/30 09:39:26;;;;;;;8.40;7.57;;;;;;;;;;5055314;28;20200;-75
2021/12/30 09:41:53;;;;;;;7.70;7.00;;;;;;;;;;5063121;28;20617;-75
2021/12/30 09:44:21;;;;;;;8.18;7.38;;;;;;;;;;5061685;28;20222;-76
2021/12/30 09:46:48;;;;;;;9.10;8.20;;;;;;;;;;5062049;28;20199;-75
2021/12/30 09:49:18;;;;;;;11.13;8.15;;;;;;;;;;5056553;28;20206;-75
2021/12/30 09:51:45;;;;;;;7.53;6.82;;;;;;;;;;5062180;28;20205;-76
2021/12/30 09:54:13;;;;;;;10.43;7.50;;;;;;;;;;5056841;28;21293;-75
2021/12/30 09:56:40;;;;;;;7.93;7.22;;;;;;;;;;5057960;28;20661;-76
2021/12/30 09:59:07;;;;;;;8.13;7.32;;;;;;;;;;5070700;28;20198;-75
2021/12/30 10:01:35;;;;;;;8.10;7.40;;;;;;;;;;5061114;28;20202;-76
2021/12/30 10:04:05;;;;;;;8.13;7.35;;;;;;;;;;5060998;28;20202;-76
2021/12/30 10:06:34;;;;;;;7.95;7.15;;;;;;;;;;5055710;28;20190;-75
2021/12/30 10:09:03;;;;;;;7.50;6.80;;;;;;;;;;5077043;28;20202;-75
2021/12/30 10:11:30;;;;;;;7.47;6.78;;;;;;;;;;5059732;28;20194;-75
2021/12/30 10:13:59;;;;;;;10.45;6.60;;;;;;;;;;5055626;28;20806;-76
2021/12/30 10:16:26;;;;;;;9.07;8.20;;;;;;;;;;5052007;28;21481;-76
2021/12/30 10:18:55;;;;;;;8.48;7.75;;;;;;;;;;5058405;28;20198;-75
2021/12/30 10:21:23;;;;;;;7.60;6.85;;;;;;;;;;5052595;28;20261;-75
2021/12/30 10:23:53;;;;;;;7.40;6.70;;;;;;;;;;5045486;28;20198;-76
2021/12/30 10:26:20;;;;;;;8.52;7.75;;;;;;;;;;5055865;28;20261;-76
2021/12/30 10:28:49;;;;;;;8.82;8.02;;;;;;;;;;5056673;28;20208;-76
2021/12/30 10:31:24;;;;;;;8.77;7.97;;;;;;;;;;5059257;28;20302;-75
2021/12/30 10:33:53;;;;;;;7.57;6.85;;;;;;;;;;5072338;28;20210;-75
2021/12/30 10:36:20;;;;;;;7.60;6.95;;;;;;;;;;5065939;28;20190;-75
2021/12/30 10:38:48;;;;;;;8.57;7.40;;;;;;;;;;5053922;28;20198;-75
2021/12/30 10:41:17;;;;;;;8.60;7.60;;;;;;;;;;5049171;28;20210;-75
2021/12/30 10:43:47;;;;;;;8.85;8.05;;;;;;;;;;5057291;28;20205;-75
2021/12/30 10:46:18;;;;;;;8.05;7.25;;;;;;;;;;5057816;28;20233;-75
2021/12/30 10:48:47;;;;;;;8.23;7.50;;;;;;;;;;5053425;28;20582;-75
2021/12/30 10:51:15;;;;;;;8.60;7.80;;;;;;;;;;5054534;28;20197;-75
2021/12/30 10:53:42;;;;;;;7.38;6.65;;;;;;;;;;5056879;28;20207;-72
2021/12/30 10:56:24;;;;;;;7.80;7.10;;;;;;;;;;5053112;28;20199;-75
2021/12/30 10:58:51;;;;;;;9.82;8.77;;;;;;;;;;5043860;28;20206;-75
2021/12/30 11:01:19;;;;;;;8.00;7.20;;;;;;;;;;5048796;28;20281;-75
2021/12/30 11:03:56;;;;;;;8.57;7.85;;;;;;;;;;5044996;28;20202;-75
2021/12/30 11:06:23;;;;;;;8.23;7.55;;;;;;;;;;5044761;28;20225;-76
2021/12/30 11:09:03;;;;;;;8.02;7.32;;;;;;;;;;5043545;28;20544;-75
2021/12/30 11:11:32;;;;;;;8.25;7.45;;;;;;;;;;5050825;28;20203;-76
2021/12/30 11:14:00;;;;;;;7.60;6.90;;;;;;;;;;5050598;28;20663;-75
2021/12/30 11:16:27;;;;;;;8.70;7.90;;;;;;;;;;5052532;28;20662;-75
2021/12/30 11:18:56;;;;;;;8.10;7.28;;;;;;;;;;5052124;28;20794;-75
2021/12/30 11:21:39;;;;;;;7.22;6.63;;;;;;;;;;5054239;28;20202;-75
2021/12/30 11:24:07;;;;;;;8.52;7.72;;;;;;;;;;5044835;28;20210;-76
2021/12/30 11:26:36;;;;;;;7.45;6.85;;;;;;;;;;5046473;28;21056;-76
2021/12/30 11:29:04;;;;;;;7.68;6.97;;;;;;;;;;5050467;28;20214;-75
2021/12/30 11:31:31;;;;;;;7.80;7.03;;;;;;;;;;5048210;28;20207;-76
2021/12/30 11:33:59;;;;;;;6.20;5.70;;;;;;;;;;5049462;28;20205;-75
2021/12/30 11:36:28;;;;;;;7.35;6.65;;;;;;;;;;5050413;28;20677;-76
2021/12/30 11:38:55;;;;;;;7.60;6.10;;;;;;;;;;5048082;28;20264;-75
2021/12/30 11:41:24;;;;;;;7.28;6.60;;;;;;;;;;5051368;28;20195;-76
2021/12/30 11:43:53;;;;;;;7.03;6.38;;;;;;;;;;5051773;28;20203;-75
2021/12/30 11:46:39;;;;;;;6.88;5.13;;;;;;;;;;5047564;28;20225;-75
2021/12/30 11:49:06;;;;;;;6.63;5.63;;;;;;;;;;5059488;28;20741;-76
2021/12/30 11:51:42;;;;;;;4.95;4.45;;;;;;;;;;5055787;28;20641;-75
2021/12/30 11:54:36;;;;;;;5.65;5.15;;;;;;;;;;5040996;28;20689;-75
2021/12/30 11:57:18;;;;;;;5.72;5.22;;;;;;;;;;5023921;28;20206;-76
2021/12/30 11:59:46;;;;;;;5.57;5.00;;;;;;;;;;5047529;28;20223;-76
2021/12/30 12:02:32;;;;;;;8.05;5.30;;;;;;;;;;5047175;28;20215;-75
2021/12/30 12:04:59;;;;;;;5.95;4.90;;;;;;;;;;5047152;28;20314;-75
2021/12/30 12:07:26;;;;;;;5.28;4.78;;;;;;;;;;5044513;28;20199;-75
2021/12/30 12:09:53;;;;;;;5.32;4.82;;;;;;;;;;5051255;28;20207;-75
2021/12/30 12:12:32;;;;;;;4.65;4.18;;;;;;;;;;5037207;28;20203;-75
2021/12/30 12:15:02;;;;;;;5.25;4.70;;;;;;;;;;5044922;28;20608;-75
2021/12/30 12:17:41;;;;;;;5.88;5.38;;;;;;;;;;5043877;28;20194;-76
2021/12/30 12:20:17;;;;;;;7.40;5.10;;;;;;;;;;5046423;28;20657;-75
2021/12/30 12:22:44;;;;;;;5.32;4.05;;;;;;;;;;5050831;28;20209;-75
2021/12/30 12:25:14;;;;;;;5.88;5.38;;;;;;;;;;5046462;28;20703;-76
2021/12/30 12:27:42;;;;;;;5.25;4.38;;;;;;;;;;5046767;28;20727;-76
2021/12/30 12:30:22;;;;;;;9.05;5.13;;;;;;;;;;5049186;28;20681;-75
2021/12/30 12:32:49;;;;;;;7.18;5.38;;;;;;;;;;5055247;28;20203;-76
2021/12/30 12:35:29;;;;;;;6.63;4.90;;;;;;;;;;5064258;28;20222;-76
2021/12/30 12:37:59;;;;;;;7.78;5.30;;;;;;;;;;5052320;28;20206;-76
2021/12/30 12:40:30;;;;;;;6.28;5.43;;;;;;;;;;5038974;28;20265;-76
2021/12/30 12:43:04;;;;;;;4.72;4.32;;;;;;;;;;5049337;28;20202;-76
2021/12/30 12:45:33;;;;;;;4.63;4.22;;;;;;;;;;5041294;28;20227;-76
2021/12/30 12:48:20;;;;;;;4.95;4.55;;;;;;;;;;5030668;28;20578;-76
2021/12/30 12:50:49;;;;;;;6.80;4.63;;;;;;;;;;5045613;28;20194;-76
2021/12/30 12:53:20;;;;;;;6.82;4.32;;;;;;;;;;5056771;28;20624;-76
2021/12/30 12:55:48;;;;;;;8.35;4.50;;;;;;;;;;5038254;28;20817;-76
2021/12/30 12:58:15;;;;;;;4.13;3.83;;;;;;;;;;5034421;28;20214;-75
2021/12/30 13:00:43;;;;;;;6.78;4.43;;;;;;;;;;5049254;28;20221;-76
2021/12/30 13:03:10;;;;;;;7.22;4.72;;;;;;;;;;5050327;28;20206;-76
2021/12/30 13:05:37;;;;;;;5.53;4.88;;;;;;;;;;5052362;28;20226;-76
2021/12/30 13:08:05;;;;;;;6.57;4.60;;;;;;;;;;5063243;28;20210;-76
2021/12/30 13:10:32;;;;;;;11.80;5.32;;;;;;;;;;5048578;28;20198;-75
2021/12/30 13:13:01;;;;;;;6.70;5.57;;;;;;;;;;5053890;28;20209;-77
2021/12/30 13:15:28;;;;;;;4.63;4.10;;;;;;;;;;5045609;28;20633;-76
2021/12/30 13:18:02;;;;;;;12.13;3.88;;;;;;;;;;5047669;28;20202;-75
2021/12/30 13:20:29;;;;;;;4.97;4.55;;;;;;;;;;5043515;28;20511;-75
2021/12/30 13:22:57;;;;;;;6.05;4.50;;;;;;;;;;5044327;28;20210;-75
2021/12/30 13:25:24;;;;;;;6.03;4.40;;;;;;;;;;5043271;28;20651;-75
2021/12/30 13:27:53;;;;;;;4.70;4.30;;;;;;;;;;5047329;28;20586;-75
2021/12/30 13:30:21;;;;;;;7.40;4.43;;;;;;;;;;5049095;28;20674;-76
2021/12/30 13:32:49;;;;;;;5.43;4.70;;;;;;;;;;5048305;28;20647;-76
2021/12/30 13:35:18;;;;;;;5.05;4.10;;;;;;;;;;5046865;28;20284;-76
2021/12/30 13:37:46;;;;;;;5.13;4.65;;;;;;;;;;5045802;28;20202;-76
2021/12/30 13:40:18;;;;;;;7.57;4.47;;;;;;;;;;5048728;28;20198;-76
2021/12/30 13:42:49;;;;;;;6.70;4.10;;;;;;;;;;5051333;28;20203;-76
2021/12/30 13:45:16;;;;;;;5.80;5.20;;;;;;;;;;5048717;28;20669;-75
2021/12/30 13:47:44;;;;;;;5.35;4.82;;;;;;;;;;5044243;28;20199;-75
2021/12/30 13:50:12;;;;;;;9.20;5.70;;;;;;;;;;5058554;28;20199;-76
2021/12/30 13:52:42;;;;;;;6.00;4.82;;;;;;;;;;5046709;28;20574;-76
2021/12/30 13:55:24;;;;;;;8.63;5.13;;;;;;;;;;5048509;28;20210;-76
2021/12/30 13:58:00;;;;;;;6.50;4.40;;;;;;;;;;5048588;28;20234;-76
2021/12/30 14:00:28;;;;;;;5.20;4.70;;;;;;;;;;5049458;28;20233;-76
2021/12/30 14:03:03;;;;;;;4.97;4.55;;;;;;;;;;5057773;28;20204;-75
2021/12/30 14:05:30;;;;;;;4.70;4.30;;;;;;;;;;5049863;28;20197;-76
2021/12/30 14:08:03;;;;;;;5.85;4.65;;;;;;;;;;5051647;28;20645;-76
2021/12/30 14:10:43;;;;;;;4.55;4.15;;;;;;;;;;5050615;28;20214;-76
2021/12/30 14:13:10;;;;;;;5.88;4.25;;;;;;;;;;5049652;28;20202;-75
2021/12/30 14:15:37;;;;;;;5.07;4.60;;;;;;;;;;5048365;28;20206;-76
2021/12/30 14:18:07;;;;;;;9.27;5.18;;;;;;;;;;5050096;28;20197;-76
2021/12/30 14:20:35;;;;;;;5.65;5.03;;;;;;;;;;5048545;28;20250;-76
2021/12/30 14:23:03;;;;;;;5.53;4.18;;;;;;;;;;5047528;28;20203;-76
2021/12/30 14:25:32;;;;;;;4.85;4.00;;;;;;;;;;5042425;28;20194;-76
2021/12/30 14:28:00;;;;;;;5.50;4.82;;;;;;;;;;5054373;28;20211;-75
2021/12/30 14:30:31;;;;;;;4.80;4.40;;;;;;;;;;5044376;28;20207;-75
2021/12/30 14:32:58;;;;;;;6.85;4.93;;;;;;;;;;5051250;28;20198;-76
2021/12/30 14:35:27;;;;;;;5.43;4.10;;;;;;;;;;5044583;28;20725;-75
2021/12/30 14:37:54;;;;;;;5.28;4.00;;;;;;;;;;5051370;28;20219;-75
2021/12/30 14:40:22;;;;;;;5.03;4.53;;;;;;;;;;5047354;28;20267;-75
2021/12/30 14:42:49;;;;;;;4.88;4.38;;;;;;;;;;5050089;28;20704;-75